createdAt,value
2022-07-25T00:02:07.522Z,23.63
2022-07-25T00:04:36.718Z,23.62
2022-07-25T00:07:04.552Z,23.61
2022-07-25T00:09:33.655Z,23.60
2022-07-25T00:12:01.351Z,23.60
2022-07-25T00:14:29.152Z,23.60
2022-07-25T00:16:56.898Z,23.61
2022-07-25T00:19:24.647Z,23.60
2022-07-25T00:21:52.365Z,23.59
2022-07-25T00:24:20.135Z,23.59
2022-07-25T00:26:49.250Z,23.59
2022-07-25T00:29:16.962Z,23.58
2022-07-25T00:31:44.814Z,23.58
2022-07-25T00:34:12.562Z,23.57
2022-07-25T00:36:40.278Z,23.56
2022-07-25T00:39:08.001Z,23.56
2022-07-25T00:41:36.211Z,23.55
2022-07-25T00:44:05.967Z,23.57
2022-07-25T00:46:33.965Z,23.56
2022-07-25T00:49:02.025Z,23.57
2022-07-25T00:51:29.861Z,23.56
2022-07-25T00:53:57.610Z,23.57
2022-07-25T00:56:25.362Z,23.56
2022-07-25T00:58:53.041Z,23.57
2022-07-25T01:01:22.243Z,23.56
2022-07-25T01:03:50.005Z,23.56
2022-07-25T01:06:17.729Z,23.57
2022-07-25T01:08:45.464Z,23.61
2022-07-25T01:11:13.196Z,23.63
2022-07-25T01:13:40.878Z,23.68
2022-07-25T01:16:09.209Z,23.75
2022-07-25T01:18:38.393Z,23.79
2022-07-25T01:21:07.569Z,23.86
2022-07-25T01:23:35.326Z,23.88
2022-07-25T01:26:03.014Z,23.92
2022-07-25T01:28:30.823Z,23.94
2022-07-25T01:30:58.551Z,23.96
2022-07-25T01:33:26.407Z,23.93
2022-07-25T01:35:54.133Z,23.92
2022-07-25T01:38:23.227Z,23.88
2022-07-25T01:40:51.065Z,23.86
2022-07-25T01:43:18.769Z,23.82
2022-07-25T01:45:46.572Z,23.79
2022-07-25T01:48:14.356Z,23.76
2022-07-25T01:50:42.202Z,23.74
2022-07-25T01:53:09.915Z,23.71
2022-07-25T01:55:39.014Z,23.67
2022-07-25T01:58:07.409Z,23.66
2022-07-25T02:00:35.709Z,23.62
2022-07-25T02:03:20.932Z,23.62
2022-07-25T02:05:48.680Z,23.59
2022-07-25T02:08:16.407Z,23.57
2022-07-25T02:10:46.226Z,23.57
2022-07-25T02:13:13.912Z,23.56
2022-07-25T02:15:41.734Z,23.54
2022-07-25T02:18:09.468Z,23.52
2022-07-25T02:20:37.191Z,23.49
2022-07-25T02:23:04.949Z,23.49
2022-07-25T02:25:32.691Z,23.48
2022-07-25T02:28:01.911Z,23.46
2022-07-25T02:30:29.854Z,23.45
2022-07-25T02:32:57.667Z,23.44
2022-07-25T02:35:25.355Z,23.44
2022-07-25T02:37:53.097Z,23.42
2022-07-25T02:40:20.796Z,23.42
2022-07-25T02:42:48.577Z,23.43
2022-07-25T02:45:17.986Z,23.44
2022-07-25T02:47:45.843Z,23.44
2022-07-25T02:50:15.021Z,23.43
2022-07-25T02:52:43.124Z,23.43
2022-07-25T02:55:11.389Z,23.42
2022-07-25T02:57:39.075Z,23.41
2022-07-25T03:00:08.426Z,23.41
2022-07-25T03:02:37.541Z,23.39
2022-07-25T03:05:07.284Z,23.38
2022-07-25T03:07:35.086Z,23.38
2022-07-25T03:10:02.930Z,23.38
2022-07-25T03:12:38.838Z,23.36
2022-07-25T03:15:08.789Z,23.34
2022-07-25T03:17:38.035Z,23.33
2022-07-25T03:20:06.869Z,23.32
2022-07-25T03:22:35.094Z,23.33
2022-07-25T03:25:02.872Z,23.31
2022-07-25T03:27:30.875Z,23.31
2022-07-25T03:29:58.560Z,23.31
2022-07-25T03:32:26.282Z,23.30
2022-07-25T03:34:55.380Z,23.29
2022-07-25T03:37:23.052Z,23.29
2022-07-25T03:39:50.774Z,23.28
2022-07-25T03:42:20.473Z,23.29
2022-07-25T03:44:51.899Z,23.30
2022-07-25T03:47:20.502Z,23.29
2022-07-25T03:49:48.615Z,23.28
2022-07-25T03:52:17.750Z,23.29
2022-07-25T03:54:45.433Z,23.28
2022-07-25T03:57:13.140Z,23.26
2022-07-25T03:59:40.837Z,23.23
2022-07-25T04:02:08.596Z,23.24
2022-07-25T04:04:36.393Z,23.24
2022-07-25T04:07:04.189Z,23.23
2022-07-25T04:09:33.557Z,23.23
2022-07-25T04:12:01.569Z,23.24
2022-07-25T04:14:29.268Z,23.20
2022-07-25T04:16:57.152Z,23.19
2022-07-25T04:19:26.217Z,23.21
2022-07-25T04:21:56.541Z,23.24
2022-07-25T04:24:24.283Z,23.24
2022-07-25T04:26:53.396Z,23.24
2022-07-25T04:29:21.087Z,23.24
2022-07-25T04:31:48.895Z,23.24
2022-07-25T04:34:16.706Z,23.23
2022-07-25T04:36:44.592Z,23.24
2022-07-25T04:39:12.319Z,23.25
2022-07-25T04:41:40.052Z,23.24
2022-07-25T04:44:09.745Z,23.21
2022-07-25T04:46:37.683Z,23.21
2022-07-25T04:49:05.656Z,23.19
2022-07-25T04:51:34.089Z,23.17
2022-07-25T04:54:02.638Z,23.16
2022-07-25T04:56:30.533Z,23.16
2022-07-25T04:59:03.123Z,23.15
2022-07-25T05:01:35.447Z,23.13
2022-07-25T05:04:04.108Z,23.13
2022-07-25T05:06:33.166Z,23.11
2022-07-25T05:09:01.483Z,23.14
2022-07-25T05:11:29.826Z,23.14
2022-07-25T05:13:57.547Z,23.14
2022-07-25T05:16:26.011Z,23.14
2022-07-25T05:18:55.306Z,23.13
2022-07-25T05:21:22.983Z,23.13
2022-07-25T05:23:50.735Z,23.13
2022-07-25T05:26:18.454Z,23.14
2022-07-25T05:28:46.179Z,23.13
2022-07-25T05:31:14.013Z,23.14
2022-07-25T05:33:42.519Z,23.14
2022-07-25T05:36:11.719Z,23.16
2022-07-25T05:38:39.452Z,23.16
2022-07-25T05:41:07.404Z,23.16
2022-07-25T05:43:35.134Z,23.17
2022-07-25T05:46:03.016Z,23.17
2022-07-25T05:48:30.794Z,23.18
2022-07-25T05:50:59.407Z,23.18
2022-07-25T05:53:28.523Z,23.19
2022-07-25T05:55:56.386Z,23.19
2022-07-25T05:58:29.434Z,23.20
2022-07-25T06:00:57.828Z,23.20
2022-07-25T06:03:28.788Z,23.22
2022-07-25T06:05:56.928Z,23.22
2022-07-25T06:08:24.917Z,23.22
2022-07-25T06:10:54.238Z,23.22
2022-07-25T06:13:23.603Z,23.23
2022-07-25T06:15:51.559Z,23.23
2022-07-25T06:18:19.387Z,23.23
2022-07-25T06:20:47.157Z,23.23
2022-07-25T06:23:15.026Z,23.23
2022-07-25T06:25:42.778Z,23.25
2022-07-25T06:28:19.478Z,23.26
2022-07-25T06:30:47.266Z,23.27
2022-07-25T06:33:15.168Z,23.27
2022-07-25T06:35:42.897Z,23.29
2022-07-25T06:38:10.608Z,23.31
2022-07-25T06:40:38.358Z,23.30
2022-07-25T06:43:06.050Z,23.32
2022-07-25T06:45:35.192Z,23.32
2022-07-25T06:48:02.933Z,23.32
2022-07-25T06:50:31.195Z,23.33
2022-07-25T06:52:58.895Z,23.35
2022-07-25T06:55:26.597Z,23.35
2022-07-25T06:57:54.590Z,23.35
2022-07-25T07:00:22.298Z,23.35
2022-07-25T07:02:53.194Z,23.37
2022-07-25T07:05:21.004Z,23.38
2022-07-25T07:07:48.697Z,23.39
2022-07-25T07:10:16.595Z,23.39
2022-07-25T07:12:44.363Z,23.39
2022-07-25T07:15:12.296Z,23.41
2022-07-25T07:17:40.298Z,23.41
2022-07-25T07:20:10.128Z,23.42
2022-07-25T07:22:45.133Z,23.42
2022-07-25T07:25:14.451Z,23.43
2022-07-25T07:27:42.239Z,23.45
2022-07-25T07:30:10.875Z,23.43
2022-07-25T07:32:38.932Z,23.43
2022-07-25T07:35:07.576Z,23.44
2022-07-25T07:37:41.434Z,23.45
2022-07-25T07:40:17.224Z,23.45
2022-07-25T07:42:47.112Z,23.45
2022-07-25T07:45:15.491Z,23.46
2022-07-25T07:47:43.330Z,23.48
2022-07-25T07:50:11.308Z,23.47
2022-07-25T07:52:40.426Z,23.48
2022-07-25T07:55:26.164Z,23.48
2022-07-25T07:57:53.897Z,23.49
2022-07-25T08:00:25.541Z,23.49
2022-07-25T08:02:54.925Z,23.50
2022-07-25T08:05:23.404Z,23.50
2022-07-25T08:07:52.589Z,23.50
2022-07-25T08:10:21.899Z,23.51
2022-07-25T08:12:49.903Z,23.52
2022-07-25T08:15:18.197Z,23.52
2022-07-25T08:17:46.227Z,23.51
2022-07-25T08:20:36.452Z,23.52
2022-07-25T08:23:03.734Z,23.53
2022-07-25T08:25:32.084Z,23.53
2022-07-25T08:28:00.010Z,23.54
2022-07-25T08:30:27.799Z,23.53
2022-07-25T08:32:57.296Z,23.54
2022-07-25T08:35:25.732Z,23.57
2022-07-25T08:37:53.515Z,23.57
2022-07-25T08:40:23.988Z,23.57
2022-07-25T08:42:51.836Z,23.58
2022-07-25T08:45:20.465Z,23.58
2022-07-25T08:47:48.497Z,23.57
2022-07-25T08:50:17.321Z,23.58
2022-07-25T08:52:45.439Z,23.59
2022-07-25T08:55:16.782Z,23.60
2022-07-25T08:57:46.418Z,23.59
2022-07-25T09:00:16.537Z,23.59
2022-07-25T09:02:44.337Z,23.61
2022-07-25T09:05:12.088Z,23.61
2022-07-25T09:07:40.346Z,23.62
2022-07-25T09:10:15.445Z,23.63
2022-07-25T09:12:43.362Z,23.63
2022-07-25T09:15:12.858Z,23.64
2022-07-25T09:17:41.267Z,23.63
2022-07-25T09:20:09.878Z,23.64
2022-07-25T09:22:46.933Z,23.65
2022-07-25T09:25:25.196Z,23.66
2022-07-25T09:27:53.003Z,23.65
2022-07-25T09:30:22.096Z,23.65
2022-07-25T09:33:00.615Z,23.65
2022-07-25T09:35:31.795Z,23.67
2022-07-25T09:38:11.154Z,23.67
2022-07-25T09:40:38.834Z,23.67
2022-07-25T09:43:06.969Z,23.66
2022-07-25T09:45:36.076Z,23.67
2022-07-25T09:48:04.988Z,23.68
2022-07-25T09:50:33.438Z,23.70
2022-07-25T09:53:02.427Z,23.70
2022-07-25T09:55:30.720Z,23.72
2022-07-25T09:57:58.399Z,23.73
2022-07-25T10:00:27.484Z,23.76
2022-07-25T10:03:05.248Z,23.78
2022-07-25T10:05:41.066Z,23.80
2022-07-25T10:08:09.906Z,23.80
2022-07-25T10:10:39.744Z,23.80
2022-07-25T10:13:11.196Z,23.81
2022-07-25T10:15:46.657Z,23.81
2022-07-25T10:18:16.136Z,23.82
2022-07-25T10:20:44.025Z,23.81
2022-07-25T10:23:19.189Z,23.80
2022-07-25T10:25:49.079Z,23.79
2022-07-25T10:28:21.241Z,23.79
2022-07-25T10:30:49.057Z,23.80
2022-07-25T10:33:19.205Z,23.79
2022-07-25T10:35:47.231Z,23.80
2022-07-25T10:38:14.965Z,23.80
2022-07-25T10:40:43.887Z,23.80
2022-07-25T10:43:13.469Z,23.80
2022-07-25T10:45:45.841Z,23.80
2022-07-25T10:48:21.252Z,23.79
2022-07-25T10:50:56.531Z,23.78
2022-07-25T10:53:38.402Z,23.79
2022-07-25T10:56:10.616Z,23.79
2022-07-25T10:58:47.063Z,23.78
2022-07-25T11:01:15.492Z,23.79
2022-07-25T11:03:45.620Z,23.80
2022-07-25T11:06:15.266Z,23.80
2022-07-25T11:08:43.346Z,23.79
2022-07-25T11:11:11.449Z,23.79
2022-07-25T11:13:39.972Z,23.80
2022-07-25T11:16:08.395Z,23.81
2022-07-25T11:18:37.631Z,23.80
2022-07-25T11:21:07.168Z,23.81
2022-07-25T11:23:36.841Z,23.81
2022-07-25T11:26:06.167Z,23.81
2022-07-25T11:28:44.214Z,23.81
2022-07-25T11:31:12.435Z,23.82
2022-07-25T11:33:40.658Z,23.82
2022-07-25T11:36:09.711Z,23.83
2022-07-25T11:38:39.011Z,23.83
2022-07-25T11:41:07.275Z,23.84
2022-07-25T11:43:35.046Z,23.83
2022-07-25T11:46:03.690Z,23.84
2022-07-25T11:48:33.181Z,23.84
2022-07-25T11:51:14.911Z,23.85
2022-07-25T11:53:48.141Z,23.85
2022-07-25T11:56:40.661Z,23.85
2022-07-25T11:59:05.234Z,23.86
2022-07-25T12:01:37.252Z,23.86
2022-07-25T12:04:15.260Z,23.87
2022-07-25T12:06:43.414Z,23.86
2022-07-25T12:09:18.918Z,23.87
2022-07-25T12:11:47.454Z,23.86
2022-07-25T12:14:15.287Z,23.86
2022-07-25T12:16:44.423Z,23.87
2022-07-25T12:19:19.885Z,23.87
2022-07-25T12:21:47.615Z,23.87
2022-07-25T12:24:16.737Z,23.88
2022-07-25T12:26:44.467Z,23.87
2022-07-25T12:29:12.192Z,23.88
2022-07-25T12:31:39.921Z,23.88
2022-07-25T12:34:07.611Z,23.89
2022-07-25T12:36:41.116Z,23.89
2022-07-25T12:39:09.328Z,23.92
2022-07-25T12:41:40.006Z,23.92
2022-07-25T12:44:07.706Z,23.91
2022-07-25T12:46:36.062Z,23.90
2022-07-25T12:49:04.176Z,23.92
2022-07-25T12:51:32.132Z,23.92
2022-07-25T12:53:59.840Z,23.92
2022-07-25T12:56:27.535Z,23.92
2022-07-25T12:58:56.791Z,23.92
2022-07-25T13:01:24.828Z,23.92
2022-07-25T13:03:52.709Z,23.93
2022-07-25T13:06:20.797Z,23.92
2022-07-25T13:08:48.535Z,23.93
2022-07-25T13:11:16.281Z,23.93
2022-07-25T13:13:43.963Z,23.94
2022-07-25T13:16:13.111Z,23.94
2022-07-25T13:18:40.931Z,23.94
2022-07-25T13:21:08.703Z,23.92
2022-07-25T13:23:36.604Z,23.93
2022-07-25T13:26:04.356Z,23.93
2022-07-25T13:28:32.329Z,23.93
2022-07-25T13:31:01.557Z,23.92
2022-07-25T13:33:30.808Z,23.94
2022-07-25T13:35:58.623Z,23.94
2022-07-25T13:38:26.359Z,23.95
2022-07-25T13:40:58.684Z,23.94
2022-07-25T13:43:26.725Z,23.95
2022-07-25T13:45:54.511Z,23.94
2022-07-25T13:48:31.613Z,23.95
2022-07-25T13:51:01.369Z,23.94
2022-07-25T13:53:30.535Z,23.95
2022-07-25T13:56:01.443Z,23.94
2022-07-25T13:58:29.556Z,23.95
2022-07-25T14:00:57.397Z,23.96
2022-07-25T14:03:25.146Z,23.96
2022-07-25T14:05:52.907Z,23.99
2022-07-25T14:08:22.253Z,23.99
2022-07-25T14:10:50.049Z,24.00
2022-07-25T14:13:17.761Z,24.00
2022-07-25T14:15:45.881Z,24.01
2022-07-25T14:18:13.675Z,24.00
2022-07-25T14:20:41.354Z,23.99
2022-07-25T14:23:09.064Z,23.99
2022-07-25T14:25:38.244Z,23.98
2022-07-25T14:28:06.130Z,23.98
2022-07-25T14:30:33.816Z,23.99
2022-07-25T14:33:01.730Z,23.98
2022-07-25T14:35:32.506Z,23.98
2022-07-25T14:38:00.694Z,23.98
2022-07-25T14:40:28.435Z,23.98
2022-07-25T14:42:57.521Z,23.97
2022-07-25T14:45:25.278Z,23.98
2022-07-25T14:47:53.896Z,23.96
2022-07-25T14:50:21.772Z,23.96
2022-07-25T14:52:49.454Z,23.96
2022-07-25T14:55:17.144Z,23.98
2022-07-25T14:57:45.253Z,24.00
2022-07-25T15:00:15.528Z,24.01
2022-07-25T15:02:43.629Z,24.04
2022-07-25T15:05:11.415Z,24.05
2022-07-25T15:07:39.197Z,24.08
2022-07-25T15:10:08.309Z,24.11
2022-07-25T15:12:36.021Z,24.09
2022-07-25T15:15:12.407Z,24.08
2022-07-25T15:17:41.495Z,24.06
2022-07-25T15:20:10.535Z,24.06
2022-07-25T15:22:38.273Z,24.05
2022-07-25T15:25:59.604Z,24.05
2022-07-25T15:27:54.501Z,24.05
2022-07-25T15:30:27.310Z,24.06
2022-07-25T15:32:58.197Z,24.06
2022-07-25T15:35:25.899Z,24.06
2022-07-25T15:37:53.602Z,24.06
2022-07-25T15:40:21.673Z,24.05
2022-07-25T15:42:49.566Z,24.04
2022-07-25T15:45:36.237Z,24.05
2022-07-25T15:48:07.853Z,24.05
2022-07-25T15:50:35.931Z,24.05
2022-07-25T15:53:03.673Z,24.06
2022-07-25T15:55:31.738Z,24.06
2022-07-25T15:57:59.526Z,24.04
2022-07-25T16:00:29.637Z,24.05
2022-07-25T16:02:58.126Z,24.05
2022-07-25T16:05:27.300Z,24.05
2022-07-25T16:07:55.005Z,24.05
2022-07-25T16:10:22.872Z,24.05
2022-07-25T16:12:50.600Z,24.04
2022-07-25T16:15:19.163Z,24.03
2022-07-25T16:17:46.997Z,24.02
2022-07-25T16:20:14.860Z,24.02
2022-07-25T16:22:44.070Z,24.01
2022-07-25T16:25:11.742Z,24.01
2022-07-25T16:27:39.672Z,24.03
2022-07-25T16:30:08.781Z,24.01
2022-07-25T16:32:36.528Z,24.01
2022-07-25T16:35:04.555Z,24.00
2022-07-25T16:37:32.718Z,24.00
2022-07-25T16:40:01.851Z,24.00
2022-07-25T16:42:29.556Z,24.00
2022-07-25T16:44:57.239Z,24.00
2022-07-25T16:47:25.208Z,24.00
2022-07-25T16:49:52.927Z,24.00
2022-07-25T16:52:20.738Z,24.00
2022-07-25T16:54:48.448Z,24.01
2022-07-25T16:57:17.539Z,24.00
2022-07-25T16:59:45.782Z,24.01
2022-07-25T17:02:13.714Z,24.03
2022-07-25T17:04:41.567Z,24.04
2022-07-25T17:07:09.761Z,24.04
2022-07-25T17:09:37.512Z,24.06
2022-07-25T17:12:06.029Z,24.07
2022-07-25T17:14:36.671Z,24.08
2022-07-25T17:17:04.734Z,24.07
2022-07-25T17:19:35.619Z,24.07
2022-07-25T17:22:03.375Z,24.09
2022-07-25T17:24:31.485Z,24.09
2022-07-25T17:26:59.175Z,24.10
2022-07-25T17:29:27.123Z,24.11
2022-07-25T17:31:56.366Z,24.11
2022-07-25T17:34:25.306Z,24.12
2022-07-25T17:36:53.078Z,24.11
2022-07-25T17:39:21.131Z,24.13
2022-07-25T17:41:49.022Z,24.14
2022-07-25T17:44:17.252Z,24.14
2022-07-25T17:46:45.344Z,24.13
2022-07-25T17:49:14.636Z,24.13
2022-07-25T17:51:42.436Z,24.13
2022-07-25T17:54:10.656Z,24.14
2022-07-25T17:56:38.848Z,24.14
2022-07-25T17:59:07.210Z,24.14
2022-07-25T18:01:34.948Z,24.13
2022-07-25T18:04:03.095Z,24.12
2022-07-25T18:06:32.824Z,24.13
2022-07-25T18:09:01.172Z,24.12
2022-07-25T18:11:28.997Z,24.12
2022-07-25T18:13:56.762Z,24.12
2022-07-25T18:16:24.764Z,24.14
2022-07-25T18:18:52.778Z,24.18
2022-07-25T18:21:20.580Z,24.24
2022-07-25T18:23:49.843Z,24.30
2022-07-25T18:26:17.924Z,24.38
2022-07-25T18:28:45.873Z,24.47
2022-07-25T18:31:14.486Z,24.55
2022-07-25T18:33:42.491Z,24.61
2022-07-25T18:36:10.711Z,24.64
2022-07-25T18:38:38.841Z,24.70
2022-07-25T18:41:28.697Z,24.74
2022-07-25T18:43:57.472Z,24.78
2022-07-25T18:46:25.485Z,24.80
2022-07-25T18:48:54.041Z,24.84
2022-07-25T18:51:22.664Z,24.86
2022-07-25T18:53:50.926Z,24.89
2022-07-25T18:56:20.676Z,24.91
2022-07-25T18:58:48.453Z,24.93
2022-07-25T19:01:16.399Z,24.96
2022-07-25T19:03:44.183Z,24.98
2022-07-25T19:06:12.132Z,24.97
2022-07-25T19:08:40.407Z,24.95
2022-07-25T19:11:08.522Z,24.92
2022-07-25T19:13:49.673Z,24.87
2022-07-25T19:16:18.389Z,24.80
2022-07-25T19:19:05.176Z,24.79
2022-07-25T19:21:33.058Z,24.76
2022-07-25T19:24:00.760Z,24.72
2022-07-25T19:26:28.527Z,24.70
2022-07-25T19:28:58.650Z,24.66
2022-07-25T19:31:27.046Z,24.65
2022-07-25T19:33:55.272Z,24.64
2022-07-25T19:36:23.044Z,24.63
2022-07-25T19:38:50.773Z,24.61
2022-07-25T19:41:18.505Z,24.58
2022-07-25T19:43:46.249Z,24.54
2022-07-25T19:46:15.389Z,24.50
2022-07-25T19:48:43.276Z,24.50
2022-07-25T19:51:11.035Z,24.46
2022-07-25T19:53:38.869Z,24.43
2022-07-25T19:56:08.428Z,24.42
2022-07-25T19:58:38.845Z,24.41
2022-07-25T20:01:08.283Z,24.40
2022-07-25T20:03:37.380Z,24.38
2022-07-25T20:06:08.275Z,24.36
2022-07-25T20:08:36.410Z,24.35
2022-07-25T20:11:04.386Z,24.33
2022-07-25T20:13:32.164Z,24.32
2022-07-25T20:15:59.936Z,24.30
2022-07-25T20:18:27.744Z,24.29
2022-07-25T20:20:56.812Z,24.27
2022-07-25T20:23:24.674Z,24.26
2022-07-25T20:25:52.580Z,24.23
2022-07-25T20:28:20.280Z,24.23
2022-07-25T20:30:48.071Z,24.24
2022-07-25T20:33:15.781Z,24.22
2022-07-25T20:35:43.572Z,24.22
2022-07-25T20:38:12.740Z,24.22
2022-07-25T20:40:46.277Z,24.22
2022-07-25T20:43:16.427Z,24.19
2022-07-25T20:45:44.215Z,24.18
2022-07-25T20:48:12.022Z,24.15
2022-07-25T20:50:39.799Z,24.15
2022-07-25T20:53:07.632Z,24.11
2022-07-25T20:55:36.760Z,24.09
2022-07-25T20:58:04.572Z,24.08
2022-07-25T21:00:32.603Z,24.06
2022-07-25T21:03:00.492Z,24.04
2022-07-25T21:05:28.360Z,24.03
2022-07-25T21:07:56.112Z,24.02
2022-07-25T21:10:23.948Z,24.01
2022-07-25T21:12:55.374Z,24.02
2022-07-25T21:15:23.256Z,24.02
2022-07-25T21:17:51.103Z,24.00
2022-07-25T21:20:18.908Z,24.00
2022-07-25T21:22:46.668Z,23.98
2022-07-25T21:25:14.375Z,24.00
2022-07-25T21:27:42.115Z,23.98
2022-07-25T21:30:12.180Z,23.99
2022-07-25T21:32:40.869Z,24.00
2022-07-25T21:35:09.340Z,23.99
2022-07-25T21:37:37.130Z,23.99
2022-07-25T21:40:05.447Z,23.98
2022-07-25T21:42:33.207Z,23.98
2022-07-25T21:45:00.944Z,24.00
2022-07-25T21:47:30.043Z,23.98
2022-07-25T21:50:19.244Z,23.97
2022-07-25T21:52:52.679Z,23.96
2022-07-25T21:55:20.791Z,23.93
2022-07-25T21:57:48.924Z,23.91
2022-07-25T22:00:16.961Z,23.89
2022-07-25T22:02:46.756Z,23.88
2022-07-25T22:05:14.820Z,23.88
2022-07-25T22:07:42.575Z,23.86
2022-07-25T22:10:11.169Z,23.86
2022-07-25T22:12:39.231Z,23.86
2022-07-25T22:15:07.724Z,23.87
2022-07-25T22:17:48.793Z,23.86
2022-07-25T22:20:18.874Z,23.86
2022-07-25T22:22:46.866Z,23.85
2022-07-25T22:25:14.669Z,23.84
2022-07-25T22:27:42.569Z,23.83
2022-07-25T22:30:17.951Z,23.81
2022-07-25T22:32:46.000Z,23.82
2022-07-25T22:35:13.837Z,23.81
2022-07-25T22:37:43.005Z,23.80
2022-07-25T22:40:11.787Z,23.80
2022-07-25T22:42:39.519Z,23.81
2022-07-25T22:45:08.263Z,23.81
2022-07-25T22:47:36.057Z,23.83
2022-07-25T22:50:04.013Z,23.81
2022-07-25T22:52:31.847Z,23.80
2022-07-25T22:55:00.936Z,23.80
2022-07-25T22:57:28.769Z,23.79
2022-07-25T22:59:56.520Z,23.78
2022-07-25T23:02:25.945Z,23.78
2022-07-25T23:04:53.657Z,23.77
2022-07-25T23:07:21.417Z,23.74
2022-07-25T23:09:49.284Z,23.74
2022-07-25T23:12:18.393Z,23.73
2022-07-25T23:14:46.144Z,23.72
2022-07-25T23:17:20.010Z,23.70
2022-07-25T23:19:48.688Z,23.71
2022-07-25T23:22:16.513Z,23.71
2022-07-25T23:24:44.284Z,23.70
2022-07-25T23:27:12.084Z,23.68
2022-07-25T23:29:41.283Z,23.70
2022-07-25T23:32:08.927Z,23.68
2022-07-25T23:34:36.834Z,23.68
2022-07-25T23:37:04.929Z,23.68
2022-07-25T23:39:33.416Z,23.68
2022-07-25T23:42:01.305Z,23.67
2022-07-25T23:44:29.086Z,23.66
2022-07-25T23:46:59.905Z,23.67
2022-07-25T23:49:29.370Z,23.67
2022-07-25T23:51:57.515Z,23.67
2022-07-25T23:54:25.710Z,23.67
2022-07-25T23:56:53.451Z,23.68
2022-07-25T23:59:21.273Z,23.68
